sensor_id;sensor_type;location;lat;lon;timestamp;P1;durP1;ratioP1;P2;durP2;ratioP2
78312;SDS011;67568;47.438;21.408;2023-03-23T00:01:48;18.83;;;10.32;;
78312;SDS011;67568;47.438;21.408;2023-03-23T00:04:14;17.30;;;9.98;;
78312;SDS011;67568;47.438;21.408;2023-03-23T00:06:39;17.23;;;9.33;;
78312;SDS011;67568;47.438;21.408;2023-03-23T00:09:04;18.23;;;9.90;;
78312;SDS011;67568;47.438;21.408;2023-03-23T00:11:31;22.73;;;10.40;;
78312;SDS011;67568;47.438;21.408;2023-03-23T00:13:57;15.57;;;9.32;;
78312;SDS011;67568;47.438;21.408;2023-03-23T00:16:25;18.88;;;9.50;;
78312;SDS011;67568;47.438;21.408;2023-03-23T00:18:51;18.30;;;9.52;;
78312;SDS011;67568;47.438;21.408;2023-03-23T00:21:16;19.40;;;9.17;;
78312;SDS011;67568;47.438;21.408;2023-03-23T00:23:41;18.30;;;9.13;;
78312;SDS011;67568;47.438;21.408;2023-03-23T00:26:07;18.17;;;9.07;;
78312;SDS011;67568;47.438;21.408;2023-03-23T00:28:32;16.87;;;8.60;;
78312;SDS011;67568;47.438;21.408;2023-03-23T00:30:59;16.13;;;9.27;;
78312;SDS011;67568;47.438;21.408;2023-03-23T00:33:30;17.35;;;8.77;;
78312;SDS011;67568;47.438;21.408;2023-03-23T00:35:57;16.63;;;8.70;;
78312;SDS011;67568;47.438;21.408;2023-03-23T00:38:22;18.07;;;9.77;;
78312;SDS011;67568;47.438;21.408;2023-03-23T00:40:49;18.60;;;9.40;;
78312;SDS011;67568;47.438;21.408;2023-03-23T00:43:16;19.53;;;10.00;;
78312;SDS011;67568;47.438;21.408;2023-03-23T00:45:43;16.52;;;8.73;;
78312;SDS011;67568;47.438;21.408;2023-03-23T00:48:09;17.23;;;9.18;;
78312;SDS011;67568;47.438;21.408;2023-03-23T00:50:34;16.17;;;8.30;;
78312;SDS011;67568;47.438;21.408;2023-03-23T00:52:59;17.30;;;9.10;;
78312;SDS011;67568;47.438;21.408;2023-03-23T00:55:25;18.00;;;8.82;;
78312;SDS011;67568;47.438;21.408;2023-03-23T00:57:53;16.70;;;8.97;;
78312;SDS011;67568;47.438;21.408;2023-03-23T01:00:18;15.38;;;9.10;;
78312;SDS011;67568;47.438;21.408;2023-03-23T01:02:44;20.77;;;9.97;;
78312;SDS011;67568;47.438;21.408;2023-03-23T01:05:11;17.90;;;9.23;;
78312;SDS011;67568;47.438;21.408;2023-03-23T01:07:37;18.33;;;9.43;;
78312;SDS011;67568;47.438;21.408;2023-03-23T01:10:02;20.90;;;9.50;;
78312;SDS011;67568;47.438;21.408;2023-03-23T01:12:29;16.23;;;9.60;;
78312;SDS011;67568;47.438;21.408;2023-03-23T01:14:57;18.88;;;9.35;;
78312;SDS011;67568;47.438;21.408;2023-03-23T01:17:22;18.10;;;10.13;;
78312;SDS011;67568;47.438;21.408;2023-03-23T01:19:48;17.33;;;9.60;;
78312;SDS011;67568;47.438;21.408;2023-03-23T01:22:13;20.90;;;10.17;;
78312;SDS011;67568;47.438;21.408;2023-03-23T01:24:39;18.50;;;10.15;;
78312;SDS011;67568;47.438;21.408;2023-03-23T01:27:04;18.37;;;10.13;;
78312;SDS011;67568;47.438;21.408;2023-03-23T01:29:29;20.97;;;12.33;;
78312;SDS011;67568;47.438;21.408;2023-03-23T01:31:55;21.13;;;11.20;;
78312;SDS011;67568;47.438;21.408;2023-03-23T01:34:20;20.50;;;11.15;;
78312;SDS011;67568;47.438;21.408;2023-03-23T01:36:46;24.23;;;12.13;;
78312;SDS011;67568;47.438;21.408;2023-03-23T01:39:11;23.80;;;12.77;;
78312;SDS011;67568;47.438;21.408;2023-03-23T01:41:37;23.53;;;12.77;;
78312;SDS011;67568;47.438;21.408;2023-03-23T01:44:06;27.88;;;13.57;;
78312;SDS011;67568;47.438;21.408;2023-03-23T01:46:52;26.73;;;13.98;;
78312;SDS011;67568;47.438;21.408;2023-03-23T01:49:19;24.13;;;13.70;;
78312;SDS011;67568;47.438;21.408;2023-03-23T01:51:53;24.42;;;13.20;;
78312;SDS011;67568;47.438;21.408;2023-03-23T01:54:23;23.63;;;13.00;;
78312;SDS011;67568;47.438;21.408;2023-03-23T01:57:10;20.05;;;11.27;;
78312;SDS011;67568;47.438;21.408;2023-03-23T01:59:39;22.42;;;11.82;;
78312;SDS011;67568;47.438;21.408;2023-03-23T02:02:08;20.48;;;11.07;;
78312;SDS011;67568;47.438;21.408;2023-03-23T02:04:34;26.42;;;13.40;;
78312;SDS011;67568;47.438;21.408;2023-03-23T02:07:00;25.10;;;13.88;;
78312;SDS011;67568;47.438;21.408;2023-03-23T02:09:25;22.27;;;13.10;;
78312;SDS011;67568;47.438;21.408;2023-03-23T02:11:51;22.80;;;11.27;;
78312;SDS011;67568;47.438;21.408;2023-03-23T02:14:19;19.85;;;10.80;;
78312;SDS011;67568;47.438;21.408;2023-03-23T02:30:27;25.75;;;11.77;;
78312;SDS011;67568;47.438;21.408;2023-03-23T02:35:43;22.05;;;11.23;;
78312;SDS011;67568;47.438;21.408;2023-03-23T02:38:15;21.92;;;11.10;;
78312;SDS011;67568;47.438;21.408;2023-03-23T02:40:45;24.10;;;10.77;;
78312;SDS011;67568;47.438;21.408;2023-03-23T02:43:17;20.60;;;10.88;;
78312;SDS011;67568;47.438;21.408;2023-03-23T02:45:46;23.95;;;12.23;;
78312;SDS011;67568;47.438;21.408;2023-03-23T02:48:15;22.52;;;11.13;;
78312;SDS011;67568;47.438;21.408;2023-03-23T02:50:45;24.13;;;11.75;;
78312;SDS011;67568;47.438;21.408;2023-03-23T02:53:14;20.80;;;11.00;;
78312;SDS011;67568;47.438;21.408;2023-03-23T02:55:47;22.33;;;10.95;;
78312;SDS011;67568;47.438;21.408;2023-03-23T02:58:12;22.77;;;11.30;;
78312;SDS011;67568;47.438;21.408;2023-03-23T03:00:38;22.17;;;11.83;;
78312;SDS011;67568;47.438;21.408;2023-03-23T03:03:04;21.13;;;11.98;;
78312;SDS011;67568;47.438;21.408;2023-03-23T03:16:32;22.67;;;13.70;;
78312;SDS011;67568;47.438;21.408;2023-03-23T03:19:03;29.60;;;14.35;;
78312;SDS011;67568;47.438;21.408;2023-03-23T03:21:48;28.10;;;15.13;;
78312;SDS011;67568;47.438;21.408;2023-03-23T03:24:17;27.25;;;15.00;;
78312;SDS011;67568;47.438;21.408;2023-03-23T03:26:46;28.00;;;14.45;;
78312;SDS011;67568;47.438;21.408;2023-03-23T03:29:18;24.73;;;13.45;;
78312;SDS011;67568;47.438;21.408;2023-03-23T03:31:46;31.08;;;14.88;;
78312;SDS011;67568;47.438;21.408;2023-03-23T03:34:14;26.00;;;14.02;;
78312;SDS011;67568;47.438;21.408;2023-03-23T03:36:41;28.38;;;14.38;;
78312;SDS011;67568;47.438;21.408;2023-03-23T03:39:07;29.07;;;14.50;;
78312;SDS011;67568;47.438;21.408;2023-03-23T03:41:34;31.42;;;14.95;;
78312;SDS011;67568;47.438;21.408;2023-03-23T03:44:02;27.40;;;14.63;;
78312;SDS011;67568;47.438;21.408;2023-03-23T03:46:31;25.48;;;13.90;;
78312;SDS011;67568;47.438;21.408;2023-03-23T03:48:57;25.97;;;13.77;;
78312;SDS011;67568;47.438;21.408;2023-03-23T03:51:23;24.33;;;14.00;;
78312;SDS011;67568;47.438;21.408;2023-03-23T03:53:50;27.85;;;13.65;;
78312;SDS011;67568;47.438;21.408;2023-03-23T03:56:16;25.60;;;12.93;;
78312;SDS011;67568;47.438;21.408;2023-03-23T03:58:42;24.90;;;13.13;;
78312;SDS011;67568;47.438;21.408;2023-03-23T04:01:08;25.30;;;13.25;;
78312;SDS011;67568;47.438;21.408;2023-03-23T04:03:34;25.63;;;13.63;;
78312;SDS011;67568;47.438;21.408;2023-03-23T04:06:00;28.42;;;13.35;;
78312;SDS011;67568;47.438;21.408;2023-03-23T04:08:25;25.47;;;13.37;;
78312;SDS011;67568;47.438;21.408;2023-03-23T04:10:51;21.67;;;12.13;;
78312;SDS011;67568;47.438;21.408;2023-03-23T04:13:16;24.42;;;13.73;;
78312;SDS011;67568;47.438;21.408;2023-03-23T04:15:43;24.98;;;13.43;;
78312;SDS011;67568;47.438;21.408;2023-03-23T04:18:09;24.17;;;13.45;;
78312;SDS011;67568;47.438;21.408;2023-03-23T04:20:34;24.15;;;13.45;;
78312;SDS011;67568;47.438;21.408;2023-03-23T04:23:00;23.02;;;12.23;;
78312;SDS011;67568;47.438;21.408;2023-03-23T04:25:26;24.73;;;13.60;;
78312;SDS011;67568;47.438;21.408;2023-03-23T04:27:52;22.73;;;12.55;;
78312;SDS011;67568;47.438;21.408;2023-03-23T04:30:22;25.00;;;12.48;;
78312;SDS011;67568;47.438;21.408;2023-03-23T04:32:49;24.25;;;13.65;;
78312;SDS011;67568;47.438;21.408;2023-03-23T04:35:15;26.20;;;12.82;;
78312;SDS011;67568;47.438;21.408;2023-03-23T04:37:42;25.40;;;14.07;;
78312;SDS011;67568;47.438;21.408;2023-03-23T04:40:07;27.77;;;14.33;;
78312;SDS011;67568;47.438;21.408;2023-03-23T04:42:34;24.67;;;14.05;;
78312;SDS011;67568;47.438;21.408;2023-03-23T04:44:59;26.10;;;13.40;;
78312;SDS011;67568;47.438;21.408;2023-03-23T04:47:26;25.07;;;13.93;;
78312;SDS011;67568;47.438;21.408;2023-03-23T04:49:51;29.50;;;15.18;;
78312;SDS011;67568;47.438;21.408;2023-03-23T04:52:17;36.53;;;15.45;;
78312;SDS011;67568;47.438;21.408;2023-03-23T04:54:46;27.58;;;15.40;;
78312;SDS011;67568;47.438;21.408;2023-03-23T04:57:11;33.03;;;15.33;;
78312;SDS011;67568;47.438;21.408;2023-03-23T04:59:40;36.35;;;16.20;;
78312;SDS011;67568;47.438;21.408;2023-03-23T05:02:05;31.30;;;16.00;;
78312;SDS011;67568;47.438;21.408;2023-03-23T05:04:30;38.33;;;17.67;;
78312;SDS011;67568;47.438;21.408;2023-03-23T05:06:56;41.57;;;19.87;;
78312;SDS011;67568;47.438;21.408;2023-03-23T05:09:24;45.90;;;22.33;;
78312;SDS011;67568;47.438;21.408;2023-03-23T05:11:49;51.50;;;20.87;;
78312;SDS011;67568;47.438;21.408;2023-03-23T05:14:15;42.60;;;19.93;;
78312;SDS011;67568;47.438;21.408;2023-03-23T05:16:41;33.70;;;17.23;;
78312;SDS011;67568;47.438;21.408;2023-03-23T05:19:06;35.70;;;16.57;;
78312;SDS011;67568;47.438;21.408;2023-03-23T05:21:32;37.13;;;16.87;;
78312;SDS011;67568;47.438;21.408;2023-03-23T05:23:57;35.22;;;17.27;;
78312;SDS011;67568;47.438;21.408;2023-03-23T05:26:23;38.53;;;16.97;;
78312;SDS011;67568;47.438;21.408;2023-03-23T05:28:49;32.58;;;15.95;;
78312;SDS011;67568;47.438;21.408;2023-03-23T05:31:14;32.47;;;16.95;;
78312;SDS011;67568;47.438;21.408;2023-03-23T05:33:40;32.17;;;16.47;;
78312;SDS011;67568;47.438;21.408;2023-03-23T05:36:05;28.55;;;15.80;;
78312;SDS011;67568;47.438;21.408;2023-03-23T05:38:31;26.97;;;14.37;;
78312;SDS011;67568;47.438;21.408;2023-03-23T05:41:00;26.38;;;14.90;;
78312;SDS011;67568;47.438;21.408;2023-03-23T05:43:25;28.15;;;15.10;;
78312;SDS011;67568;47.438;21.408;2023-03-23T05:45:51;26.53;;;16.13;;
78312;SDS011;67568;47.438;21.408;2023-03-23T05:48:17;26.13;;;15.63;;
78312;SDS011;67568;47.438;21.408;2023-03-23T05:50:42;31.45;;;17.45;;
78312;SDS011;67568;47.438;21.408;2023-03-23T05:53:07;29.87;;;19.00;;
78312;SDS011;67568;47.438;21.408;2023-03-23T05:55:33;25.40;;;16.00;;
78312;SDS011;67568;47.438;21.408;2023-03-23T05:57:58;25.57;;;14.97;;
78312;SDS011;67568;47.438;21.408;2023-03-23T06:00:24;27.52;;;14.70;;
78312;SDS011;67568;47.438;21.408;2023-03-23T06:02:49;25.97;;;14.40;;
78312;SDS011;67568;47.438;21.408;2023-03-23T06:05:19;22.85;;;13.52;;
78312;SDS011;67568;47.438;21.408;2023-03-23T06:07:44;23.17;;;13.80;;
78312;SDS011;67568;47.438;21.408;2023-03-23T06:10:10;26.07;;;13.90;;
78312;SDS011;67568;47.438;21.408;2023-03-23T06:12:36;25.80;;;13.23;;
78312;SDS011;67568;47.438;21.408;2023-03-23T06:15:03;20.90;;;12.55;;
78312;SDS011;67568;47.438;21.408;2023-03-23T06:17:29;24.23;;;12.32;;
78312;SDS011;67568;47.438;21.408;2023-03-23T06:19:54;25.20;;;12.33;;
78312;SDS011;67568;47.438;21.408;2023-03-23T06:22:22;21.15;;;11.93;;
78312;SDS011;67568;47.438;21.408;2023-03-23T06:24:48;18.83;;;11.30;;
78312;SDS011;67568;47.438;21.408;2023-03-23T06:27:13;20.92;;;10.82;;
78312;SDS011;67568;47.438;21.408;2023-03-23T06:29:39;21.97;;;10.53;;
78312;SDS011;67568;47.438;21.408;2023-03-23T06:32:04;20.27;;;11.87;;
78312;SDS011;67568;47.438;21.408;2023-03-23T06:34:30;25.55;;;11.23;;
78312;SDS011;67568;47.438;21.408;2023-03-23T06:36:57;23.70;;;11.63;;
78312;SDS011;67568;47.438;21.408;2023-03-23T06:39:22;19.87;;;11.43;;
78312;SDS011;67568;47.438;21.408;2023-03-23T06:41:48;22.60;;;12.10;;
78312;SDS011;67568;47.438;21.408;2023-03-23T06:44:16;20.47;;;10.87;;
78312;SDS011;67568;47.438;21.408;2023-03-23T06:46:42;21.13;;;10.70;;
78312;SDS011;67568;47.438;21.408;2023-03-23T06:49:11;21.60;;;11.30;;
78312;SDS011;67568;47.438;21.408;2023-03-23T06:51:36;21.00;;;10.60;;
78312;SDS011;67568;47.438;21.408;2023-03-23T06:54:02;17.63;;;10.07;;
78312;SDS011;67568;47.438;21.408;2023-03-23T06:56:28;20.27;;;10.43;;
78312;SDS011;67568;47.438;21.408;2023-03-23T06:58:57;16.77;;;9.70;;
78312;SDS011;67568;47.438;21.408;2023-03-23T07:01:46;18.00;;;9.60;;
78312;SDS011;67568;47.438;21.408;2023-03-23T07:04:12;20.17;;;9.70;;
78312;SDS011;67568;47.438;21.408;2023-03-23T07:06:38;16.35;;;9.43;;
78312;SDS011;67568;47.438;21.408;2023-03-23T07:09:03;15.47;;;8.77;;
78312;SDS011;67568;47.438;21.408;2023-03-23T07:11:29;18.25;;;9.07;;
78312;SDS011;67568;47.438;21.408;2023-03-23T07:13:55;14.93;;;9.17;;
78312;SDS011;67568;47.438;21.408;2023-03-23T07:16:20;15.77;;;8.60;;
78312;SDS011;67568;47.438;21.408;2023-03-23T07:18:46;15.50;;;8.23;;
78312;SDS011;67568;47.438;21.408;2023-03-23T07:21:12;14.77;;;8.32;;
78312;SDS011;67568;47.438;21.408;2023-03-23T07:23:38;14.33;;;8.43;;
78312;SDS011;67568;47.438;21.408;2023-03-23T07:26:04;15.07;;;7.85;;
78312;SDS011;67568;47.438;21.408;2023-03-23T07:28:46;13.27;;;7.85;;
78312;SDS011;67568;47.438;21.408;2023-03-23T07:31:15;14.27;;;7.97;;
78312;SDS011;67568;47.438;21.408;2023-03-23T07:33:43;11.95;;;7.30;;
78312;SDS011;67568;47.438;21.408;2023-03-23T07:36:10;13.00;;;7.20;;
78312;SDS011;67568;47.438;21.408;2023-03-23T07:38:35;12.80;;;6.82;;
78312;SDS011;67568;47.438;21.408;2023-03-23T07:41:01;10.70;;;6.72;;
78312;SDS011;67568;47.438;21.408;2023-03-23T07:43:36;12.17;;;6.40;;
78312;SDS011;67568;47.438;21.408;2023-03-23T07:46:11;12.13;;;5.70;;
78312;SDS011;67568;47.438;21.408;2023-03-23T07:48:37;11.98;;;6.00;;
78312;SDS011;67568;47.438;21.408;2023-03-23T07:51:04;9.60;;;5.57;;
78312;SDS011;67568;47.438;21.408;2023-03-23T07:53:34;12.65;;;5.60;;
78312;SDS011;67568;47.438;21.408;2023-03-23T07:56:02;14.00;;;5.83;;
78312;SDS011;67568;47.438;21.408;2023-03-23T07:58:30;13.07;;;5.57;;
78312;SDS011;67568;47.438;21.408;2023-03-23T08:00:56;13.90;;;5.90;;
78312;SDS011;67568;47.438;21.408;2023-03-23T08:03:21;11.20;;;5.60;;
78312;SDS011;67568;47.438;21.408;2023-03-23T08:05:47;12.00;;;5.67;;
78312;SDS011;67568;47.438;21.408;2023-03-23T08:08:13;8.83;;;4.77;;
78312;SDS011;67568;47.438;21.408;2023-03-23T08:10:39;11.02;;;5.43;;
78312;SDS011;67568;47.438;21.408;2023-03-23T08:13:05;9.40;;;5.30;;
78312;SDS011;67568;47.438;21.408;2023-03-23T08:15:39;8.27;;;4.67;;
78312;SDS011;67568;47.438;21.408;2023-03-23T08:18:05;12.57;;;4.90;;
78312;SDS011;67568;47.438;21.408;2023-03-23T08:20:30;9.73;;;5.00;;
78312;SDS011;67568;47.438;21.408;2023-03-23T08:22:56;11.05;;;5.72;;
78312;SDS011;67568;47.438;21.408;2023-03-23T08:25:22;16.30;;;5.43;;
78312;SDS011;67568;47.438;21.408;2023-03-23T08:27:50;11.57;;;5.50;;
78312;SDS011;67568;47.438;21.408;2023-03-23T08:30:17;9.18;;;4.85;;
78312;SDS011;67568;47.438;21.408;2023-03-23T08:32:45;11.50;;;5.13;;
78312;SDS011;67568;47.438;21.408;2023-03-23T08:35:11;10.90;;;5.37;;
78312;SDS011;67568;47.438;21.408;2023-03-23T08:37:38;9.65;;;4.95;;
78312;SDS011;67568;47.438;21.408;2023-03-23T08:40:04;8.80;;;4.93;;
78312;SDS011;67568;47.438;21.408;2023-03-23T08:42:30;8.43;;;4.47;;
78312;SDS011;67568;47.438;21.408;2023-03-23T08:44:56;9.23;;;5.10;;
78312;SDS011;67568;47.438;21.408;2023-03-23T08:47:21;10.30;;;4.87;;
78312;SDS011;67568;47.438;21.408;2023-03-23T08:49:50;9.23;;;4.63;;
78312;SDS011;67568;47.438;21.408;2023-03-23T08:52:15;9.90;;;4.30;;
78312;SDS011;67568;47.438;21.408;2023-03-23T08:54:40;9.73;;;4.10;;
78312;SDS011;67568;47.438;21.408;2023-03-23T08:57:06;9.13;;;4.30;;
78312;SDS011;67568;47.438;21.408;2023-03-23T08:59:31;10.20;;;4.23;;
78312;SDS011;67568;47.438;21.408;2023-03-23T09:01:57;7.80;;;4.13;;
78312;SDS011;67568;47.438;21.408;2023-03-23T09:04:22;8.73;;;4.07;;
78312;SDS011;67568;47.438;21.408;2023-03-23T09:06:48;12.52;;;4.50;;
78312;SDS011;67568;47.438;21.408;2023-03-23T09:09:16;8.67;;;4.30;;
78312;SDS011;67568;47.438;21.408;2023-03-23T09:11:44;8.18;;;4.25;;
78312;SDS011;67568;47.438;21.408;2023-03-23T09:14:19;9.20;;;4.97;;
78312;SDS011;67568;47.438;21.408;2023-03-23T09:16:48;9.75;;;4.70;;
78312;SDS011;67568;47.438;21.408;2023-03-23T09:19:14;8.68;;;4.30;;
78312;SDS011;67568;47.438;21.408;2023-03-23T09:21:39;8.03;;;3.90;;
78312;SDS011;67568;47.438;21.408;2023-03-23T09:24:08;11.15;;;3.67;;
78312;SDS011;67568;47.438;21.408;2023-03-23T09:26:33;7.60;;;4.13;;
78312;SDS011;67568;47.438;21.408;2023-03-23T09:28:59;8.77;;;4.20;;
78312;SDS011;67568;47.438;21.408;2023-03-23T09:31:25;7.13;;;3.70;;
78312;SDS011;67568;47.438;21.408;2023-03-23T09:33:50;6.73;;;3.60;;
78312;SDS011;67568;47.438;21.408;2023-03-23T09:36:16;7.00;;;3.95;;
78312;SDS011;67568;47.438;21.408;2023-03-23T09:38:41;8.03;;;3.70;;
78312;SDS011;67568;47.438;21.408;2023-03-23T09:49:43;6.93;;;3.55;;
78312;SDS011;67568;47.438;21.408;2023-03-23T09:52:22;7.60;;;3.47;;
78312;SDS011;67568;47.438;21.408;2023-03-23T09:54:52;8.75;;;3.28;;
78312;SDS011;67568;47.438;21.408;2023-03-23T10:05:34;9.57;;;4.05;;
78312;SDS011;67568;47.438;21.408;2023-03-23T10:08:00;6.78;;;3.25;;
78312;SDS011;67568;47.438;21.408;2023-03-23T10:13:16;7.20;;;3.27;;
78312;SDS011;67568;47.438;21.408;2023-03-23T10:15:48;7.95;;;3.72;;
78312;SDS011;67568;47.438;21.408;2023-03-23T10:18:20;7.93;;;3.70;;
78312;SDS011;67568;47.438;21.408;2023-03-23T10:21:16;6.78;;;2.70;;
78312;SDS011;67568;47.438;21.408;2023-03-23T10:26:33;10.13;;;2.80;;
78312;SDS011;67568;47.438;21.408;2023-03-23T10:29:11;6.93;;;2.58;;
78312;SDS011;67568;47.438;21.408;2023-03-23T10:31:52;6.93;;;3.20;;
78312;SDS011;67568;47.438;21.408;2023-03-23T10:34:24;7.22;;;3.28;;
78312;SDS011;67568;47.438;21.408;2023-03-23T10:39:48;9.37;;;3.43;;
78312;SDS011;67568;47.438;21.408;2023-03-23T10:44:54;6.80;;;2.95;;
78312;SDS011;67568;47.438;21.408;2023-03-23T10:47:22;7.80;;;3.05;;
78312;SDS011;67568;47.438;21.408;2023-03-23T10:50:01;7.53;;;3.45;;
78312;SDS011;67568;47.438;21.408;2023-03-23T10:52:33;7.70;;;3.50;;
78312;SDS011;67568;47.438;21.408;2023-03-23T10:55:05;7.60;;;3.40;;
78312;SDS011;67568;47.438;21.408;2023-03-23T10:57:34;9.63;;;3.40;;
78312;SDS011;67568;47.438;21.408;2023-03-23T11:00:04;7.15;;;3.40;;
78312;SDS011;67568;47.438;21.408;2023-03-23T11:02:35;8.95;;;3.63;;
78312;SDS011;67568;47.438;21.408;2023-03-23T11:05:13;6.83;;;3.23;;
78312;SDS011;67568;47.438;21.408;2023-03-23T11:07:51;8.57;;;4.10;;
78312;SDS011;67568;47.438;21.408;2023-03-23T11:12:47;7.72;;;3.28;;
78312;SDS011;67568;47.438;21.408;2023-03-23T11:15:29;6.30;;;2.90;;
78312;SDS011;67568;47.438;21.408;2023-03-23T11:18:03;5.93;;;2.80;;
78312;SDS011;67568;47.438;21.408;2023-03-23T11:20:33;7.38;;;3.10;;
78312;SDS011;67568;47.438;21.408;2023-03-23T11:23:07;7.70;;;3.33;;
78312;SDS011;67568;47.438;21.408;2023-03-23T11:25:49;6.53;;;2.90;;
78312;SDS011;67568;47.438;21.408;2023-03-23T11:28:18;13.82;;;3.63;;
78312;SDS011;67568;47.438;21.408;2023-03-23T11:30:44;7.18;;;2.80;;
78312;SDS011;67568;47.438;21.408;2023-03-23T11:33:10;5.90;;;3.00;;
78312;SDS011;67568;47.438;21.408;2023-03-23T11:35:36;5.97;;;3.08;;
78312;SDS011;67568;47.438;21.408;2023-03-23T11:38:02;7.23;;;3.33;;
78312;SDS011;67568;47.438;21.408;2023-03-23T11:40:29;9.82;;;3.15;;
78312;SDS011;67568;47.438;21.408;2023-03-23T11:45:22;8.53;;;2.70;;
78312;SDS011;67568;47.438;21.408;2023-03-23T11:56:36;5.85;;;2.58;;
78312;SDS011;67568;47.438;21.408;2023-03-23T11:59:09;6.20;;;2.80;;
78312;SDS011;67568;47.438;21.408;2023-03-23T12:04:40;8.90;;;2.75;;
78312;SDS011;67568;47.438;21.408;2023-03-23T12:26:39;5.18;;;2.40;;
78312;SDS011;67568;47.438;21.408;2023-03-23T12:29:46;7.60;;;2.80;;
78312;SDS011;67568;47.438;21.408;2023-03-23T12:32:23;5.72;;;2.30;;
78312;SDS011;67568;47.438;21.408;2023-03-23T12:35:14;7.45;;;2.40;;
78312;SDS011;67568;47.438;21.408;2023-03-23T12:41:16;6.38;;;2.35;;
78312;SDS011;67568;47.438;21.408;2023-03-23T12:47:21;8.73;;;2.60;;
78312;SDS011;67568;47.438;21.408;2023-03-23T12:49:41;8.38;;;3.05;;
78312;SDS011;67568;47.438;21.408;2023-03-23T12:54:48;5.05;;;2.20;;
78312;SDS011;67568;47.438;21.408;2023-03-23T13:00:03;12.43;;;3.03;;
78312;SDS011;67568;47.438;21.408;2023-03-23T13:02:30;7.38;;;2.78;;
78312;SDS011;67568;47.438;21.408;2023-03-23T13:05:06;7.63;;;2.80;;
78312;SDS011;67568;47.438;21.408;2023-03-23T13:07:41;10.10;;;3.30;;
78312;SDS011;67568;47.438;21.408;2023-03-23T13:10:33;10.10;;;3.20;;
78312;SDS011;67568;47.438;21.408;2023-03-23T13:13:00;8.85;;;3.15;;
78312;SDS011;67568;47.438;21.408;2023-03-23T13:15:29;8.68;;;3.05;;
78312;SDS011;67568;47.438;21.408;2023-03-23T13:21:02;8.18;;;3.00;;
78312;SDS011;67568;47.438;21.408;2023-03-23T13:23:44;9.73;;;2.73;;
78312;SDS011;67568;47.438;21.408;2023-03-23T13:26:17;8.75;;;3.17;;
78312;SDS011;67568;47.438;21.408;2023-03-23T13:33:49;9.25;;;2.72;;
78312;SDS011;67568;47.438;21.408;2023-03-23T13:36:16;11.90;;;2.67;;
78312;SDS011;67568;47.438;21.408;2023-03-23T13:38:50;9.38;;;2.47;;
78312;SDS011;67568;47.438;21.408;2023-03-23T13:41:17;9.45;;;2.75;;
78312;SDS011;67568;47.438;21.408;2023-03-23T13:43:44;8.30;;;3.10;;
78312;SDS011;67568;47.438;21.408;2023-03-23T13:46:23;7.33;;;2.90;;
78312;SDS011;67568;47.438;21.408;2023-03-23T13:49:15;9.98;;;2.58;;
78312;SDS011;67568;47.438;21.408;2023-03-23T13:54:24;7.90;;;2.80;;
78312;SDS011;67568;47.438;21.408;2023-03-23T13:57:01;6.65;;;2.90;;
78312;SDS011;67568;47.438;21.408;2023-03-23T13:59:31;5.80;;;2.28;;
78312;SDS011;67568;47.438;21.408;2023-03-23T14:05:10;6.80;;;2.80;;
78312;SDS011;67568;47.438;21.408;2023-03-23T14:07:53;8.13;;;2.33;;
78312;SDS011;67568;47.438;21.408;2023-03-23T14:10:19;9.60;;;2.40;;
78312;SDS011;67568;47.438;21.408;2023-03-23T14:12:45;6.72;;;2.58;;
78312;SDS011;67568;47.438;21.408;2023-03-23T14:15:14;8.50;;;2.88;;
78312;SDS011;67568;47.438;21.408;2023-03-23T14:17:41;6.17;;;2.50;;
78312;SDS011;67568;47.438;21.408;2023-03-23T14:20:25;7.18;;;2.70;;
78312;SDS011;67568;47.438;21.408;2023-03-23T14:22:55;6.20;;;2.50;;
78312;SDS011;67568;47.438;21.408;2023-03-23T14:25:21;7.47;;;2.75;;
78312;SDS011;67568;47.438;21.408;2023-03-23T14:27:51;5.43;;;2.33;;
78312;SDS011;67568;47.438;21.408;2023-03-23T14:30:18;6.67;;;2.83;;
78312;SDS011;67568;47.438;21.408;2023-03-23T14:32:46;7.03;;;2.30;;
78312;SDS011;67568;47.438;21.408;2023-03-23T14:38:09;6.85;;;2.60;;
78312;SDS011;67568;47.438;21.408;2023-03-23T14:40:46;8.70;;;2.92;;
78312;SDS011;67568;47.438;21.408;2023-03-23T14:43:14;7.47;;;3.20;;
78312;SDS011;67568;47.438;21.408;2023-03-23T14:45:43;6.45;;;2.40;;
78312;SDS011;67568;47.438;21.408;2023-03-23T14:48:13;8.82;;;2.58;;
78312;SDS011;67568;47.438;21.408;2023-03-23T14:50:50;12.20;;;3.28;;
78312;SDS011;67568;47.438;21.408;2023-03-23T14:55:46;7.33;;;2.90;;
78312;SDS011;67568;47.438;21.408;2023-03-23T14:58:14;7.10;;;2.65;;
78312;SDS011;67568;47.438;21.408;2023-03-23T15:00:42;8.77;;;2.60;;
78312;SDS011;67568;47.438;21.408;2023-03-23T15:03:12;7.53;;;2.83;;
78312;SDS011;67568;47.438;21.408;2023-03-23T15:06:04;8.23;;;2.50;;
78312;SDS011;67568;47.438;21.408;2023-03-23T15:08:30;11.27;;;3.27;;
78312;SDS011;67568;47.438;21.408;2023-03-23T15:11:07;9.27;;;2.90;;
78312;SDS011;67568;47.438;21.408;2023-03-23T15:13:36;7.80;;;3.30;;
78312;SDS011;67568;47.438;21.408;2023-03-23T15:16:06;8.43;;;3.55;;
78312;SDS011;67568;47.438;21.408;2023-03-23T15:18:38;12.50;;;3.47;;
78312;SDS011;67568;47.438;21.408;2023-03-23T15:21:21;8.33;;;3.03;;
78312;SDS011;67568;47.438;21.408;2023-03-23T15:23:49;6.65;;;2.78;;
78312;SDS011;67568;47.438;21.408;2023-03-23T15:26:22;9.00;;;3.22;;
78312;SDS011;67568;47.438;21.408;2023-03-23T15:28:58;7.40;;;3.00;;
78312;SDS011;67568;47.438;21.408;2023-03-23T15:31:40;9.95;;;3.35;;
78312;SDS011;67568;47.438;21.408;2023-03-23T15:34:13;11.48;;;3.58;;
78312;SDS011;67568;47.438;21.408;2023-03-23T15:36:42;8.45;;;3.97;;
78312;SDS011;67568;47.438;21.408;2023-03-23T15:39:09;11.10;;;3.47;;
78312;SDS011;67568;47.438;21.408;2023-03-23T15:41:45;10.25;;;2.83;;
78312;SDS011;67568;47.438;21.408;2023-03-23T15:44:12;8.70;;;3.15;;
78312;SDS011;67568;47.438;21.408;2023-03-23T15:46:50;6.72;;;2.92;;
78312;SDS011;67568;47.438;21.408;2023-03-23T15:49:18;7.20;;;2.60;;
78312;SDS011;67568;47.438;21.408;2023-03-23T15:51:44;9.63;;;3.38;;
78312;SDS011;67568;47.438;21.408;2023-03-23T15:54:13;13.45;;;4.05;;
78312;SDS011;67568;47.438;21.408;2023-03-23T15:56:41;9.73;;;4.35;;
78312;SDS011;67568;47.438;21.408;2023-03-23T15:59:08;8.60;;;4.07;;
78312;SDS011;67568;47.438;21.408;2023-03-23T16:01:34;8.98;;;4.15;;
78312;SDS011;67568;47.438;21.408;2023-03-23T16:06:34;7.05;;;3.08;;
78312;SDS011;67568;47.438;21.408;2023-03-23T16:09:03;10.35;;;3.42;;
78312;SDS011;67568;47.438;21.408;2023-03-23T16:11:31;7.00;;;3.37;;
78312;SDS011;67568;47.438;21.408;2023-03-23T16:13:58;9.02;;;3.30;;
78312;SDS011;67568;47.438;21.408;2023-03-23T16:16:29;9.35;;;4.13;;
78312;SDS011;67568;47.438;21.408;2023-03-23T16:18:57;10.20;;;3.67;;
78312;SDS011;67568;47.438;21.408;2023-03-23T16:21:25;8.80;;;3.70;;
78312;SDS011;67568;47.438;21.408;2023-03-23T16:23:52;9.60;;;4.20;;
78312;SDS011;67568;47.438;21.408;2023-03-23T16:26:19;9.23;;;4.03;;
78312;SDS011;67568;47.438;21.408;2023-03-23T16:28:46;9.07;;;3.97;;
78312;SDS011;67568;47.438;21.408;2023-03-23T16:31:12;11.88;;;3.80;;
78312;SDS011;67568;47.438;21.408;2023-03-23T16:33:39;12.68;;;4.00;;
78312;SDS011;67568;47.438;21.408;2023-03-23T16:36:06;8.50;;;3.57;;